createdAt,value
2018-08-24T00:01:32.215Z,100335.86
2018-08-24T00:04:04.818Z,100328.43
2018-08-24T00:06:33.168Z,100327.16
2018-08-24T00:09:01.539Z,100331.03
2018-08-24T00:11:29.891Z,100329.34
2018-08-24T00:13:58.705Z,100321.09
2018-08-24T00:16:33.048Z,100319.34
2018-08-24T00:19:01.398Z,100314.56
2018-08-24T00:21:29.715Z,100309.86
2018-08-24T00:23:58.064Z,100307.98
2018-08-24T00:26:26.380Z,100302.98
2018-08-24T00:28:55.815Z,100297.09
2018-08-24T00:31:24.740Z,100289.48
2018-08-24T00:33:53.339Z,100298.34
2018-08-24T00:36:23.342Z,100306.16
2018-08-24T00:38:51.720Z,100299.11
2018-08-24T00:41:20.112Z,100294.27
2018-08-24T00:43:48.596Z,100291.03
2018-08-24T00:46:16.948Z,100292.09
2018-08-24T00:48:45.763Z,100286.62
2018-08-24T00:51:14.082Z,100289.41
2018-08-24T00:53:42.408Z,100279.14
2018-08-24T00:56:11.735Z,100287.72
2018-08-24T00:58:40.399Z,100279.77
2018-08-24T01:01:09.309Z,100275.29
2018-08-24T01:03:38.084Z,100269.98
2018-08-24T01:06:07.049Z,100271.14
2018-08-24T01:08:35.789Z,100281.84
2018-08-24T01:11:04.342Z,100278.89
2018-08-24T01:13:32.820Z,100270.86
2018-08-24T01:16:02.256Z,100271.60
2018-08-24T01:18:36.025Z,100267.83
2018-08-24T01:21:04.613Z,100268.48
2018-08-24T01:23:34.643Z,100266.09
2018-08-24T01:26:03.303Z,100272.17
2018-08-24T01:28:32.610Z,100272.36
2018-08-24T01:31:04.242Z,100266.84
2018-08-24T01:33:32.966Z,100260.34
2018-08-24T01:36:01.298Z,100247.84
2018-08-24T01:38:29.640Z,100251.53
2018-08-24T01:40:58.907Z,100252.90
2018-08-24T01:43:27.225Z,100252.73
2018-08-24T01:46:01.882Z,100247.48
2018-08-24T01:48:30.229Z,100249.44
2018-08-24T01:50:59.564Z,100238.86
2018-08-24T01:53:27.922Z,100242.88
2018-08-24T01:55:56.556Z,100248.10
2018-08-24T01:58:24.983Z,100259.53
2018-08-24T02:00:53.342Z,100253.40
2018-08-24T02:03:22.303Z,100245.66
2018-08-24T02:05:50.624Z,100243.50
2018-08-24T02:08:18.992Z,100243.33
2018-08-24T02:10:47.336Z,100245.66
2018-08-24T02:13:21.150Z,100240.71
2018-08-24T02:15:49.499Z,100237.98
2018-08-24T02:19:27.008Z,100233.61
2018-08-24T02:22:00.948Z,100234.34
2018-08-24T02:24:29.283Z,100239.18
2018-08-24T02:26:57.636Z,100237.02
2018-08-24T02:29:25.977Z,100240.44
2018-08-24T02:31:54.592Z,100247.08
2018-08-24T02:34:22.933Z,100250.90
2018-08-24T02:36:51.347Z,100243.73
2018-08-24T02:39:20.513Z,100245.22
2018-08-24T02:41:48.909Z,100248.28
2018-08-24T02:44:17.338Z,100243.73
2018-08-24T02:46:45.687Z,100240.08
2018-08-24T02:49:14.039Z,100239.86
2018-08-24T02:51:43.400Z,100240.37
2018-08-24T02:54:12.626Z,100237.48
2018-08-24T02:56:41.413Z,100238.55
2018-08-24T02:59:09.732Z,100237.88
2018-08-24T03:01:38.115Z,100240.60
2018-08-24T03:04:06.672Z,100237.47
2018-08-24T03:06:35.009Z,100231.28
2018-08-24T03:09:03.440Z,100235.24
2018-08-24T03:11:31.832Z,100230.93
2018-08-24T03:14:00.185Z,100231.22
2018-08-24T03:16:28.706Z,100224.27
2018-08-24T03:18:56.979Z,100223.32
2018-08-24T03:21:25.339Z,100222.84
2018-08-24T03:23:53.691Z,100230.08
2018-08-24T03:26:22.041Z,100232.11
2018-08-24T03:28:50.789Z,100235.70
2018-08-24T03:31:19.133Z,100233.63
2018-08-24T03:33:47.482Z,100234.42
2018-08-24T03:36:15.820Z,100240.58
2018-08-24T03:38:44.169Z,100249.27
2018-08-24T03:41:12.483Z,100251.49
2018-08-24T03:43:40.899Z,100236.42
2018-08-24T03:46:09.243Z,100231.77
2018-08-24T03:48:37.601Z,100233.19
2018-08-24T03:51:05.960Z,100229.25
2018-08-24T03:53:34.308Z,100224.94
2018-08-24T03:56:02.648Z,100226.81
2018-08-24T03:58:30.998Z,100233.13
2018-08-24T04:00:59.812Z,100241.73
2018-08-24T04:03:29.216Z,100245.55
2018-08-24T04:05:57.579Z,100244.24
2018-08-24T04:08:26.063Z,100250.06
2018-08-24T04:10:54.936Z,100247.25
2018-08-24T04:13:23.286Z,100240.02
2018-08-24T04:15:51.624Z,100246.83
2018-08-24T04:18:19.945Z,100248.86
2018-08-24T04:20:48.319Z,100254.24
2018-08-24T04:23:16.673Z,100250.85
2018-08-24T04:25:45.056Z,100252.21
2018-08-24T04:28:13.402Z,100246.34
2018-08-24T04:30:41.779Z,100247.90
2018-08-24T04:33:10.175Z,100247.63
2018-08-24T04:35:38.567Z,100249.06
2018-08-24T04:38:06.929Z,100262.27
2018-08-24T04:40:35.316Z,100262.11
2018-08-24T04:43:03.735Z,100260.39
2018-08-24T04:45:32.143Z,100260.67
2018-08-24T04:48:00.494Z,100261.13
2018-08-24T04:50:29.283Z,100248.41
2018-08-24T04:52:57.661Z,100247.70
2018-08-24T04:55:26.007Z,100246.25
2018-08-24T04:57:54.352Z,100252.88
2018-08-24T05:00:23.277Z,100252.88
2018-08-24T05:02:51.657Z,100248.28
2018-08-24T05:05:19.993Z,100244.03
2018-08-24T05:07:48.349Z,100239.25
2018-08-24T05:10:16.725Z,100247.11
2018-08-24T05:12:45.088Z,100253.66
2018-08-24T05:15:13.464Z,100247.04
2018-08-24T05:17:41.891Z,100245.98
2018-08-24T05:20:10.241Z,100248.91
2018-08-24T05:22:38.621Z,100251.36
2018-08-24T05:25:07.230Z,100249.91
2018-08-24T05:27:35.612Z,100253.14
2018-08-24T05:30:03.957Z,100247.63
2018-08-24T05:32:32.339Z,100243.09
2018-08-24T05:35:00.746Z,100254.14
2018-08-24T05:37:29.096Z,100254.80
2018-08-24T05:39:57.475Z,100257.02
2018-08-24T05:42:25.825Z,100266.28
2018-08-24T05:44:54.195Z,100269.71
2018-08-24T05:47:22.566Z,100271.30
2018-08-24T05:49:50.919Z,100275.28
2018-08-24T05:52:19.406Z,100273.19
2018-08-24T05:54:47.780Z,100272.88
2018-08-24T05:57:16.108Z,100270.30
2018-08-24T05:59:44.537Z,100275.25
2018-08-24T06:02:12.892Z,100273.53
2018-08-24T06:04:41.259Z,100276.70
2018-08-24T06:07:09.651Z,100275.76
2018-08-24T06:09:37.995Z,100283.84
2018-08-24T06:12:06.408Z,100292.67
2018-08-24T06:14:34.819Z,100290.07
2018-08-24T06:17:08.591Z,100288.48
2018-08-24T06:19:37.484Z,100297.45
2018-08-24T06:22:05.960Z,100292.76
2018-08-24T06:24:35.911Z,100300.95
2018-08-24T06:27:04.222Z,100302.84
2018-08-24T06:29:32.573Z,100296.22
2018-08-24T06:32:01.119Z,100292.28
2018-08-24T06:34:30.833Z,100284.14
2018-08-24T06:36:59.212Z,100288.91
2018-08-24T06:39:27.554Z,100285.98
2018-08-24T06:41:56.179Z,100291.11
2018-08-24T06:44:24.602Z,100286.55
2018-08-24T06:46:53.031Z,100289.84
2018-08-24T06:49:22.361Z,100293.41
2018-08-24T06:51:50.759Z,100280.27
2018-08-24T06:54:19.118Z,100278.84
2018-08-24T06:56:47.469Z,100287.28
2018-08-24T06:59:15.849Z,100280.61
2018-08-24T07:01:44.190Z,100294.86
2018-08-24T07:04:12.572Z,100296.39
2018-08-24T07:06:41.048Z,100300.97
2018-08-24T07:09:09.877Z,100299.13
2018-08-24T07:11:38.280Z,100304.98
2018-08-24T07:14:06.614Z,100312.58
2018-08-24T07:16:34.944Z,100326.51
2018-08-24T07:19:03.289Z,100315.88
2018-08-24T07:21:31.670Z,100306.48
2018-08-24T07:24:00.024Z,100303.53
2018-08-24T07:26:28.433Z,100313.88
2018-08-24T07:28:56.787Z,100313.47
2018-08-24T07:31:25.158Z,100314.25
2018-08-24T07:33:53.545Z,100315.20
2018-08-24T07:36:21.924Z,100295.50
2018-08-24T07:38:50.341Z,100308.95
2018-08-24T07:41:18.822Z,100314.97
2018-08-24T07:43:47.257Z,100307.05
2018-08-24T07:46:15.684Z,100310.72
2018-08-24T07:48:44.040Z,100307.24
2018-08-24T07:51:12.367Z,100315.14
2018-08-24T07:53:40.750Z,100315.82
2018-08-24T07:56:09.097Z,100315.15
2018-08-24T07:58:37.428Z,100316.52
2018-08-24T08:01:05.956Z,100320.24
2018-08-24T08:03:34.336Z,100321.28
2018-08-24T08:06:02.684Z,100326.09
2018-08-24T08:08:31.024Z,100335.77
2018-08-24T08:10:59.559Z,100335.89
2018-08-24T08:13:27.907Z,100338.89
2018-08-24T08:15:56.303Z,100340.88
2018-08-24T08:18:24.697Z,100338.06
2018-08-24T08:20:53.118Z,100338.64
2018-08-24T08:23:21.454Z,100345.09
2018-08-24T08:25:49.801Z,100343.61
2018-08-24T08:28:18.180Z,100340.61
2018-08-24T08:30:46.560Z,100347.75
2018-08-24T08:33:14.910Z,100352.36
2018-08-24T08:35:43.259Z,100346.05
2018-08-24T08:38:11.627Z,100342.01
2018-08-24T08:40:39.975Z,100344.41
2018-08-24T08:43:08.331Z,100337.62
2018-08-24T08:45:36.704Z,100346.73
2018-08-24T08:48:05.042Z,100353.10
2018-08-24T08:50:33.386Z,100353.03
2018-08-24T08:53:01.732Z,100354.11
2018-08-24T08:55:30.091Z,100355.86
2018-08-24T08:57:58.432Z,100360.27
2018-08-24T09:00:26.794Z,100357.33
2018-08-24T09:02:55.176Z,100353.93
2018-08-24T09:05:23.561Z,100358.05
2018-08-24T09:07:51.911Z,100359.17
2018-08-24T09:10:20.259Z,100362.02
2018-08-24T09:12:48.655Z,100367.19
2018-08-24T09:15:17.076Z,100367.69
2018-08-24T09:17:50.829Z,100371.85
2018-08-24T09:20:24.559Z,100360.64
2018-08-24T09:22:58.240Z,100359.27
2018-08-24T09:25:32.011Z,100365.13
2018-08-24T09:28:05.739Z,100358.56
2018-08-24T09:30:39.316Z,100366.19
2018-08-24T09:33:07.729Z,100372.79
2018-08-24T09:35:36.061Z,100374.38
2018-08-24T09:38:04.736Z,100376.55
2018-08-24T09:40:38.519Z,100375.45
2018-08-24T09:43:12.359Z,100380.41
2018-08-24T09:45:40.604Z,100378.27
2018-08-24T09:48:14.315Z,100377.77
2018-08-24T09:50:47.978Z,100379.95
2018-08-24T09:53:21.721Z,100378.22
2018-08-24T09:55:50.063Z,100383.95
2018-08-24T09:58:18.409Z,100378.62
2018-08-24T10:00:52.177Z,100382.92
2018-08-24T10:04:24.657Z,100386.22
2018-08-24T10:06:58.365Z,100381.95
2018-08-24T10:09:26.726Z,100386.36
2018-08-24T10:11:55.053Z,100391.56
2018-08-24T10:14:23.428Z,100388.08
2018-08-24T10:16:51.757Z,100386.87
2018-08-24T10:19:20.086Z,100387.47
2018-08-24T10:21:48.435Z,100400.22
2018-08-24T10:24:16.783Z,100404.58
2018-08-24T10:26:45.190Z,100398.61
2018-08-24T10:29:13.550Z,100401.04
2018-08-24T10:31:41.872Z,100406.37
2018-08-24T10:34:10.184Z,100413.95
2018-08-24T10:36:38.586Z,100416.00
2018-08-24T10:39:08.540Z,100421.18
2018-08-24T10:41:36.873Z,100419.02
2018-08-24T10:44:05.206Z,100421.21
2018-08-24T10:46:33.556Z,100441.25
2018-08-24T10:49:01.882Z,100446.30
2018-08-24T10:51:30.205Z,100447.98
2018-08-24T10:53:58.524Z,100452.30
2018-08-24T10:56:26.864Z,100455.13
2018-08-24T10:58:55.212Z,100462.47
2018-08-24T11:01:23.625Z,100465.79
2018-08-24T11:03:51.932Z,100471.91
2018-08-24T11:06:20.322Z,100475.62
2018-08-24T11:08:48.655Z,100489.38
2018-08-24T11:11:16.979Z,100495.00
2018-08-24T11:13:45.346Z,100496.55
2018-08-24T11:16:13.844Z,100475.33
2018-08-24T11:18:42.154Z,100493.47
2018-08-24T11:21:10.481Z,100499.13
2018-08-24T11:23:38.949Z,100497.25
2018-08-24T11:26:07.277Z,100492.34
2018-08-24T11:28:35.625Z,100490.86
2018-08-24T11:31:03.963Z,100493.15
2018-08-24T11:33:32.316Z,100499.51
2018-08-24T11:36:00.757Z,100510.23
2018-08-24T11:38:29.005Z,100510.12
2018-08-24T11:40:57.510Z,100511.34
2018-08-24T11:43:25.864Z,100492.05
2018-08-24T11:45:54.196Z,100486.60
2018-08-24T11:48:22.521Z,100495.73
2018-08-24T11:50:50.865Z,100497.61
2018-08-24T11:53:19.209Z,100488.47
2018-08-24T11:55:47.555Z,100484.53
2018-08-24T11:58:15.904Z,100481.13
2018-08-24T12:00:44.282Z,100487.97
2018-08-24T12:03:12.619Z,100487.37
2018-08-24T12:05:40.969Z,100486.13
2018-08-24T12:08:09.513Z,100476.56
2018-08-24T12:10:37.693Z,100474.22
2018-08-24T12:13:06.043Z,100475.71
2018-08-24T12:15:34.385Z,100482.05
2018-08-24T12:18:03.097Z,100480.86
2018-08-24T12:20:31.417Z,100471.64
2018-08-24T12:22:59.796Z,100481.53
2018-08-24T12:25:28.131Z,100480.92
2018-08-24T12:27:56.522Z,100485.93
2018-08-24T12:30:24.864Z,100478.00
2018-08-24T12:32:53.209Z,100461.70
2018-08-24T12:35:21.548Z,100458.24
2018-08-24T12:37:49.903Z,100454.36
2018-08-24T12:40:18.245Z,100455.09
2018-08-24T12:42:46.630Z,100472.22
2018-08-24T12:45:15.012Z,100471.78
2018-08-24T12:47:43.345Z,100456.12
2018-08-24T12:50:11.760Z,100458.86
2018-08-24T12:52:40.141Z,100459.05
2018-08-24T12:55:08.580Z,100470.95
2018-08-24T12:57:36.944Z,100471.39
2018-08-24T13:00:05.757Z,100463.38
2018-08-24T13:02:34.055Z,100466.28
2018-08-24T13:05:02.387Z,100463.03
2018-08-24T13:07:30.755Z,100465.83
2018-08-24T13:09:59.099Z,100464.52
2018-08-24T13:12:27.437Z,100463.58
2018-08-24T13:14:55.787Z,100458.75
2018-08-24T13:17:24.129Z,100461.28
2018-08-24T13:19:52.450Z,100466.50
2018-08-24T13:22:20.783Z,100469.83
2018-08-24T13:24:49.097Z,100476.21
2018-08-24T13:27:17.460Z,100470.13
2018-08-24T13:29:45.786Z,100470.84
2018-08-24T13:32:14.121Z,100471.56
2018-08-24T13:34:43.458Z,100469.83
2018-08-24T13:37:11.977Z,100454.15
2018-08-24T13:39:40.356Z,100454.95
2018-08-24T13:42:08.692Z,100449.83
2018-08-24T13:44:37.452Z,100451.86
2018-08-24T13:47:05.860Z,100455.72
2018-08-24T13:49:34.327Z,100449.12
2018-08-24T13:52:02.659Z,100442.17
2018-08-24T13:54:31.018Z,100443.03
2018-08-24T13:56:59.357Z,100440.22
2018-08-24T13:59:27.822Z,100439.56
2018-08-24T14:01:56.500Z,100440.41
2018-08-24T14:04:24.909Z,100434.44
2018-08-24T14:06:53.272Z,100442.17
2018-08-24T14:09:21.932Z,100447.00
2018-08-24T14:11:50.336Z,100449.06
2018-08-24T14:14:19.226Z,100449.84
2018-08-24T14:16:47.607Z,100461.34
2018-08-24T14:19:15.987Z,100454.03
2018-08-24T14:21:44.353Z,100452.08
2018-08-24T14:24:12.735Z,100448.84
2018-08-24T14:26:41.158Z,100452.64
2018-08-24T14:29:09.661Z,100456.61
2018-08-24T14:31:38.217Z,100452.12
2018-08-24T14:34:06.538Z,100447.94
2018-08-24T14:36:35.002Z,100448.74
2018-08-24T14:39:03.394Z,100448.05
2018-08-24T14:41:31.776Z,100445.20
2018-08-24T14:44:00.201Z,100437.03
2018-08-24T14:46:28.577Z,100432.41
2018-08-24T14:48:56.947Z,100439.64
2018-08-24T14:51:25.328Z,100438.82
2018-08-24T14:53:53.763Z,100438.82
2018-08-24T14:56:22.160Z,100442.08
2018-08-24T14:58:50.462Z,100431.42
2018-08-24T15:01:18.821Z,100438.95
2018-08-24T15:03:47.174Z,100437.63
2018-08-24T15:06:15.497Z,100437.80
2018-08-24T15:08:44.742Z,100434.20
2018-08-24T15:11:13.075Z,100445.84
2018-08-24T15:13:41.452Z,100443.10
2018-08-24T15:16:09.815Z,100442.97
2018-08-24T15:18:38.209Z,100436.77
2018-08-24T15:21:06.633Z,100443.02
2018-08-24T15:23:34.971Z,100449.25
2018-08-24T15:26:03.299Z,100446.69
2018-08-24T15:28:31.664Z,100439.41
2018-08-24T15:31:00.747Z,100451.23
2018-08-24T15:33:29.344Z,100450.84
2018-08-24T15:35:58.148Z,100459.67
2018-08-24T15:38:26.523Z,100459.51
2018-08-24T15:40:54.845Z,100460.66
2018-08-24T15:43:23.174Z,100460.27
2018-08-24T15:45:51.506Z,100460.17
2018-08-24T15:48:19.836Z,100461.38
2018-08-24T15:50:48.180Z,100464.05
2018-08-24T15:53:16.529Z,100458.77
2018-08-24T15:55:44.923Z,100459.21
2018-08-24T15:58:13.441Z,100463.20
2018-08-24T16:00:42.479Z,100473.00
2018-08-24T16:03:10.878Z,100471.34
2018-08-24T16:05:39.291Z,100473.80
2018-08-24T16:08:07.680Z,100463.03
2018-08-24T16:10:36.321Z,100463.25
2018-08-24T16:13:04.713Z,100469.00
2018-08-24T16:15:33.083Z,100470.41
2018-08-24T16:18:06.788Z,100459.67
2018-08-24T16:20:35.143Z,100459.83
2018-08-24T16:23:03.492Z,100464.15
2018-08-24T16:25:31.929Z,100473.02
2018-08-24T16:28:00.268Z,100472.95
2018-08-24T16:30:28.676Z,100477.48
2018-08-24T16:32:57.057Z,100473.89
2018-08-24T16:35:25.612Z,100472.59
2018-08-24T16:37:54.041Z,100478.90
2018-08-24T16:40:22.383Z,100471.22
2018-08-24T16:42:50.747Z,100472.08
2018-08-24T16:45:19.887Z,100474.07
2018-08-24T16:47:48.322Z,100469.78
2018-08-24T16:50:16.747Z,100465.69
2018-08-24T16:52:45.089Z,100464.00
2018-08-24T16:55:13.797Z,100470.98
2018-08-24T16:57:42.257Z,100467.69
2018-08-24T17:00:10.605Z,100462.89
2018-08-24T17:02:39.058Z,100471.98
2018-08-24T17:05:07.690Z,100469.70
2018-08-24T17:07:36.304Z,100467.82
2018-08-24T17:10:05.070Z,100468.56
2018-08-24T17:12:33.447Z,100473.28
2018-08-24T17:15:01.974Z,100475.59
2018-08-24T17:17:30.461Z,100471.07
2018-08-24T17:19:58.872Z,100472.13
2018-08-24T17:22:27.300Z,100476.81
2018-08-24T17:24:55.648Z,100476.23
2018-08-24T17:27:24.104Z,100477.37
2018-08-24T17:29:52.993Z,100476.43
2018-08-24T17:32:21.467Z,100476.70
2018-08-24T17:34:50.050Z,100478.34
2018-08-24T17:37:18.860Z,100486.95
2018-08-24T17:39:47.358Z,100494.70
2018-08-24T17:42:15.737Z,100494.12
2018-08-24T17:44:44.083Z,100494.03
2018-08-24T17:47:12.667Z,100496.41
2018-08-24T17:49:41.307Z,100489.24
2018-08-24T17:52:09.683Z,100495.94
2018-08-24T17:54:38.260Z,100487.67
2018-08-24T17:57:06.855Z,100497.58
2018-08-24T17:59:35.175Z,100501.94
2018-08-24T18:02:03.552Z,100501.34
2018-08-24T18:04:32.052Z,100506.59
2018-08-24T18:07:00.493Z,100508.49
2018-08-24T18:09:28.860Z,100520.91
2018-08-24T18:11:57.232Z,100522.13
2018-08-24T18:14:25.600Z,100524.50
2018-08-24T18:16:54.014Z,100524.94
2018-08-24T18:19:22.470Z,100525.44
2018-08-24T18:21:50.832Z,100525.95
2018-08-24T18:24:19.200Z,100524.08
2018-08-24T18:26:47.583Z,100529.68
2018-08-24T18:29:15.933Z,100526.62
2018-08-24T18:31:44.427Z,100533.59
2018-08-24T18:34:12.776Z,100534.86
2018-08-24T18:36:41.202Z,100544.41
2018-08-24T18:39:11.495Z,100549.60
2018-08-24T18:41:39.854Z,100549.56
2018-08-24T18:44:08.572Z,100552.90
2018-08-24T18:46:36.923Z,100555.00
2018-08-24T18:49:05.397Z,100566.06
2018-08-24T18:51:33.810Z,100575.60
2018-08-24T18:54:02.360Z,100574.28
2018-08-24T18:56:30.747Z,100576.77
2018-08-24T18:58:59.123Z,100584.80
2018-08-24T19:01:27.498Z,100587.91
2018-08-24T19:03:55.854Z,100578.23
2018-08-24T19:06:24.305Z,100580.61
2018-08-24T19:08:52.689Z,100576.92
2018-08-24T19:12:26.194Z,100576.31
2018-08-24T19:14:55.597Z,100578.41
2018-08-24T19:17:29.474Z,100577.91
2018-08-24T19:20:03.208Z,100592.66
2018-08-24T19:22:31.590Z,100589.19
2018-08-24T19:25:00.026Z,100591.55
2018-08-24T19:27:33.825Z,100593.56
2018-08-24T19:30:07.532Z,100604.81
2018-08-24T19:32:35.990Z,100601.73
2018-08-24T19:35:04.480Z,100606.28
2018-08-24T19:37:32.866Z,100606.43
2018-08-24T19:40:06.990Z,100602.87
2018-08-24T19:42:35.369Z,100599.41
2018-08-24T19:45:03.716Z,100602.13
2018-08-24T19:47:37.436Z,100594.71
2018-08-24T19:50:06.210Z,100595.94
2018-08-24T19:52:35.126Z,100601.38
2018-08-24T19:55:03.545Z,100594.97
2018-08-24T19:57:37.215Z,100591.38
2018-08-24T20:00:05.593Z,100590.38
2018-08-24T20:02:33.974Z,100596.22
2018-08-24T20:05:03.110Z,100595.72
2018-08-24T20:07:36.758Z,100594.25
2018-08-24T20:10:07.450Z,100595.61
2018-08-24T20:12:35.830Z,100599.94
2018-08-24T20:15:09.694Z,100602.20
2018-08-24T20:17:38.072Z,100599.11
2018-08-24T20:20:07.170Z,100602.95
2018-08-24T20:22:35.658Z,100597.86
2018-08-24T20:25:04.541Z,100602.19
2018-08-24T20:27:32.924Z,100602.95
2018-08-24T20:30:01.294Z,100602.83
2018-08-24T20:32:29.652Z,100600.97
2018-08-24T20:34:57.995Z,100606.66
2018-08-24T20:37:26.350Z,100604.58
2018-08-24T20:39:54.777Z,100609.05
2018-08-24T20:42:23.105Z,100608.66
2018-08-24T20:44:51.503Z,100611.41
2018-08-24T20:47:19.881Z,100614.73
2018-08-24T20:49:48.196Z,100621.53
2018-08-24T20:52:16.754Z,100616.23
2018-08-24T20:54:45.163Z,100615.75
2018-08-24T20:57:13.514Z,100622.44
2018-08-24T20:59:41.865Z,100618.10
2018-08-24T21:02:10.576Z,100618.12
2018-08-24T21:04:38.926Z,100618.62
2018-08-24T21:07:07.435Z,100620.48
2018-08-24T21:09:35.774Z,100622.05
2018-08-24T21:12:04.153Z,100632.92
2018-08-24T21:14:32.566Z,100627.61
2018-08-24T21:17:00.881Z,100624.88
2018-08-24T21:19:29.280Z,100625.73
2018-08-24T21:21:57.679Z,100626.50
2018-08-24T21:24:26.403Z,100621.43
2018-08-24T21:26:54.735Z,100620.67
2018-08-24T21:29:24.084Z,100625.25
2018-08-24T21:31:52.481Z,100620.95
2018-08-24T21:34:21.347Z,100623.03
2018-08-24T21:36:49.687Z,100626.38
2018-08-24T21:39:18.034Z,100622.41
2018-08-24T21:41:46.383Z,100622.19
2018-08-24T21:44:14.739Z,100623.41
2018-08-24T21:46:43.101Z,100622.91
2018-08-24T21:49:11.405Z,100622.19
2018-08-24T21:51:39.764Z,100626.14
2018-08-24T21:54:08.224Z,100627.50
2018-08-24T21:56:36.545Z,100633.54
2018-08-24T21:59:04.904Z,100633.67
2018-08-24T22:01:33.281Z,100636.50
2018-08-24T22:04:01.654Z,100633.91
2018-08-24T22:06:29.995Z,100640.84
2018-08-24T22:08:58.336Z,100642.19
2018-08-24T22:11:26.688Z,100647.02
2018-08-24T22:13:55.012Z,100645.53
2018-08-24T22:16:23.342Z,100647.75
2018-08-24T22:18:51.648Z,100646.00
2018-08-24T22:21:20.037Z,100638.97
2018-08-24T22:23:48.384Z,100646.00
2018-08-24T22:26:16.784Z,100652.05
2018-08-24T22:28:45.108Z,100653.77
2018-08-24T22:31:13.449Z,100655.13
2018-08-24T22:33:41.778Z,100664.91
2018-08-24T22:36:10.097Z,100657.98
2018-08-24T22:38:38.448Z,100657.36
2018-08-24T22:41:07.003Z,100654.14
2018-08-24T22:43:36.052Z,100650.20
2018-08-24T22:46:04.943Z,100653.64
2018-08-24T22:48:33.948Z,100649.80
2018-08-24T22:51:02.494Z,100646.72
2018-08-24T22:53:30.845Z,100644.23
2018-08-24T22:55:59.415Z,100635.95
2018-08-24T22:58:28.077Z,100630.02
2018-08-24T23:00:56.718Z,100639.66
2018-08-24T23:03:25.106Z,100630.38
2018-08-24T23:05:53.446Z,100631.25
2018-08-24T23:08:21.879Z,100638.30
2018-08-24T23:10:50.267Z,100637.05
2018-08-24T23:13:18.604Z,100631.11
2018-08-24T23:15:46.952Z,100629.63
2018-08-24T23:18:15.302Z,100635.78
2018-08-24T23:20:43.664Z,100628.49
2018-08-24T23:23:12.048Z,100629.25
2018-08-24T23:25:40.411Z,100630.98
2018-08-24T23:28:08.797Z,100629.85
2018-08-24T23:30:37.140Z,100628.62
2018-08-24T23:33:05.536Z,100631.17
2018-08-24T23:35:33.869Z,100635.84
2018-08-24T23:38:02.332Z,100636.83
2018-08-24T23:40:30.677Z,100630.67
2018-08-24T23:42:59.040Z,100622.03
2018-08-24T23:45:27.386Z,100621.27
2018-08-24T23:47:55.732Z,100626.56
2018-08-24T23:50:24.072Z,100626.19
2018-08-24T23:52:52.450Z,100628.27
2018-08-24T23:55:20.784Z,100622.08
2018-08-24T23:57:49.164Z,100614.69
